Time;durP1;ratioP1;P1;durP2;ratioP2;P2;SDS_P1;SDS_P2;PMS_P1;PMS_P2;Temp;Humidity;BMP_temperature;BMP_pressure;BME280_temperature;BME280_humidity;BME280_pressure;Samples;Min_cycle;Max_cycle;Signal;HPM_P1;HPM_P2
2022/11/17 00:00:26;;;;;;;0.90;0.55;;;12.10;99.90;;;;;;4976023;28;20162;-82
2022/11/17 00:02:52;;;;;;;6.15;0.60;;;12.20;99.90;;;;;;4975756;28;20228;-81
2022/11/17 00:05:18;;;;;;;0.82;0.47;;;12.20;99.90;;;;;;4974383;28;20284;-82
2022/11/17 00:07:44;;;;;;;0.95;0.55;;;12.20;99.90;;;;;;4975841;28;20648;-81
2022/11/17 00:10:11;;;;;;;1.55;0.60;;;12.20;99.90;;;;;;4974562;28;20194;-82
2022/11/17 00:15:20;;;;;;;2.80;0.75;;;12.10;99.90;;;;;;4976049;28;20208;-81
2022/11/17 00:21:17;;;;;;;3.92;0.63;;;12.10;99.90;;;;;;4975330;28;20245;-81
2022/11/17 00:23:16;;;;;;;4.50;0.65;;;12.20;99.90;;;;;;4975519;28;20286;-82
2022/11/17 00:25:42;;;;;;;3.15;0.68;;;12.10;99.90;;;;;;4974426;28;20219;-81
2022/11/17 00:28:07;;;;;;;2.05;0.55;;;12.00;99.90;;;;;;4975468;28;20216;-82
2022/11/17 00:34:10;;;;;;;3.05;0.70;;;12.00;99.90;;;;;;4954276;29;20183;-81
2022/11/17 00:36:29;;;;;;;4.43;0.80;;;12.10;99.90;;;;;;4954187;28;20174;-82
2022/11/17 00:38:55;;;;;;;7.93;1.33;;;12.10;99.90;;;;;;4967888;28;20202;-81
2022/11/17 00:41:20;;;;;;;2.63;0.77;;;12.00;99.90;;;;;;4987933;28;20890;-80
2022/11/17 00:43:46;;;;;;;4.72;0.90;;;12.10;99.90;;;;;;4973276;28;20537;-82
2022/11/17 00:46:11;;;;;;;5.60;0.75;;;12.10;99.90;;;;;;4975022;28;20210;-84
2022/11/17 00:48:37;;;;;;;4.63;0.70;;;12.10;99.90;;;;;;4973167;28;20721;-81
2022/11/17 00:51:04;;;;;;;10.50;1.85;;;12.10;99.90;;;;;;4975024;28;20170;-83
2022/11/17 00:53:29;;;;;;;5.20;1.00;;;12.10;99.90;;;;;;4975311;28;20224;-83
2022/11/17 00:55:55;;;;;;;5.90;0.93;;;12.10;99.90;;;;;;4975264;28;20257;-82
2022/11/17 00:58:21;;;;;;;5.93;1.13;;;12.10;99.90;;;;;;4973795;28;20198;-82
2022/11/17 01:00:49;;;;;;;8.48;1.30;;;12.10;99.90;;;;;;4975284;28;20232;-81
2022/11/17 01:03:15;;;;;;;7.75;1.73;;;12.10;99.90;;;;;;4973808;28;20623;-81
2022/11/17 01:05:40;;;;;;;6.60;0.95;;;12.10;99.90;;;;;;4975199;28;20213;-82
2022/11/17 01:08:06;;;;;;;3.25;1.33;;;12.10;99.90;;;;;;4974696;28;20173;-83
2022/11/17 01:10:34;;;;;;;5.15;1.23;;;12.10;99.90;;;;;;4973594;28;20269;-83
2022/11/17 01:13:00;;;;;;;7.45;1.05;;;12.10;99.90;;;;;;4974982;28;20173;-84
2022/11/17 01:15:25;;;;;;;7.60;1.15;;;12.10;99.90;;;;;;4973382;28;20174;-82
2022/11/17 01:17:51;;;;;;;3.10;1.15;;;12.20;99.90;;;;;;4973906;28;20210;-83
2022/11/17 01:20:17;;;;;;;8.93;1.52;;;12.20;99.90;;;;;;4973250;28;20185;-81
2022/11/17 01:22:42;;;;;;;4.25;1.67;;;12.20;99.90;;;;;;4974985;28;20221;-82
2022/11/17 01:25:08;;;;;;;5.93;1.40;;;12.20;99.90;;;;;;4973562;28;20170;-82
2022/11/17 01:27:33;;;;;;;16.58;1.98;;;12.20;99.90;;;;;;4974620;28;20260;-83
2022/11/17 01:29:59;;;;;;;3.70;1.05;;;12.30;99.90;;;;;;4974851;28;20193;-82
2022/11/17 01:32:24;;;;;;;6.68;1.00;;;12.40;99.90;;;;;;4974752;28;20206;-84
2022/11/17 01:34:50;;;;;;;3.38;1.15;;;12.30;99.90;;;;;;4974740;28;20623;-82
2022/11/17 01:37:19;;;;;;;7.43;1.80;;;12.30;99.90;;;;;;4974725;28;20572;-84
2022/11/17 01:39:45;;;;;;;10.60;1.17;;;12.20;99.90;;;;;;4974422;28;20190;-82
2022/11/17 01:42:14;;;;;;;7.28;1.67;;;12.20;99.90;;;;;;4987029;28;20186;-81
2022/11/17 01:44:53;;;;;;;1.52;0.90;;;12.10;99.90;;;;;;4987017;28;20180;-82
2022/11/17 01:48:00;;;;;;;3.45;1.13;;;12.10;99.90;;;;;;4989751;28;20308;-83
2022/11/17 01:50:34;;;;;;;7.22;1.40;;;12.20;99.90;;;;;;4990434;28;20201;-83
2022/11/17 01:53:05;;;;;;;11.35;1.20;;;12.30;99.90;;;;;;4989400;28;20185;-83
2022/11/17 01:55:36;;;;;;;7.07;1.02;;;12.40;99.90;;;;;;4990033;28;20170;-82
2022/11/17 01:58:18;;;;;;;12.18;1.63;;;12.40;99.90;;;;;;4990159;28;20166;-82
2022/11/17 02:00:44;;;;;;;9.13;1.20;;;12.40;99.90;;;;;;4978476;28;20302;-83
2022/11/17 02:03:09;;;;;;;13.10;1.52;;;12.40;99.90;;;;;;4973298;28;20206;-84
2022/11/17 02:05:58;;;;;;;8.95;1.75;;;12.40;99.90;;;;;;4973685;28;20547;-83
2022/11/17 02:08:27;;;;;;;7.28;1.70;;;12.30;99.90;;;;;;4973495;28;20203;-82
2022/11/17 02:10:53;;;;;;;4.28;1.75;;;12.30;99.90;;;;;;4972018;28;20190;-81
2022/11/17 02:13:20;;;;;;;8.55;1.42;;;12.20;99.90;;;;;;4972040;28;20228;-81
2022/11/17 02:15:46;;;;;;;4.28;1.10;;;12.20;99.90;;;;;;4972210;28;20507;-82
2022/11/17 02:18:12;;;;;;;10.43;1.30;;;12.20;99.90;;;;;;4973244;28;20177;-81
2022/11/17 02:21:13;;;;;;;5.47;1.25;;;12.10;99.90;;;;;;4973272;28;20171;-81
2022/11/17 02:23:48;;;;;;;8.95;1.17;;;12.30;99.90;;;;;;4972247;28;20169;-82
2022/11/17 02:26:28;;;;;;;8.10;1.23;;;12.30;99.90;;;;;;4973439;28;20251;-81
2022/11/17 02:28:57;;;;;;;6.50;1.40;;;12.40;99.90;;;;;;4974513;28;20202;-82
2022/11/17 02:31:38;;;;;;;8.15;1.95;;;12.30;99.90;;;;;;4977294;28;20184;-84
2022/11/17 02:34:29;;;;;;;8.35;1.48;;;12.30;99.90;;;;;;4976115;28;20523;-83
2022/11/17 02:37:06;;;;;;;6.68;1.40;;;12.30;99.90;;;;;;4977379;28;20595;-80
2022/11/17 02:39:41;;;;;;;7.05;1.52;;;12.40;99.90;;;;;;4977181;28;20189;-82
2022/11/17 02:42:13;;;;;;;8.77;1.40;;;12.40;99.90;;;;;;4976964;28;20193;-82
2022/11/17 02:44:56;;;;;;;3.28;1.13;;;12.40;99.90;;;;;;4977074;28;20162;-81
2022/11/17 02:47:29;;;;;;;3.40;1.25;;;12.30;99.90;;;;;;4975680;28;20717;-83
2022/11/17 02:50:00;;;;;;;1.50;0.80;;;12.40;99.90;;;;;;4975579;28;20197;-83
2022/11/17 02:52:28;;;;;;;9.73;1.40;;;12.30;99.90;;;;;;4977025;28;20171;-83
2022/11/17 02:55:02;;;;;;;5.25;1.35;;;12.30;99.90;;;;;;4977010;28;20181;-82
2022/11/17 02:57:33;;;;;;;4.00;1.10;;;12.20;99.90;;;;;;4977063;28;20216;-83
2022/11/17 03:00:02;;;;;;;3.72;1.02;;;12.20;99.90;;;;;;4975712;28;20197;-82
2022/11/17 03:02:54;;;;;;;8.43;1.40;;;12.20;99.90;;;;;;4976752;28;20170;-82
2022/11/17 03:05:38;;;;;;;6.40;1.10;;;12.20;99.90;;;;;;4975093;28;20193;-85
2022/11/17 03:08:21;;;;;;;5.22;1.23;;;12.30;99.90;;;;;;4977128;28;20174;-85
2022/11/17 03:10:59;;;;;;;5.15;1.50;;;12.20;99.90;;;;;;4996659;28;20227;-84
2022/11/17 03:13:33;;;;;;;4.90;1.35;;;12.30;99.90;;;;;;4996039;28;20165;-84
2022/11/17 03:16:33;;;;;;;4.22;1.20;;;12.30;99.90;;;;;;4996407;28;20540;-84
2022/11/17 03:19:23;;;;;;;6.78;1.15;;;12.20;99.90;;;;;;4996403;28;20212;-83
2022/11/17 03:22:06;;;;;;;8.43;1.33;;;12.10;99.90;;;;;;4996580;28;20706;-84
2022/11/17 03:25:03;;;;;;;10.25;1.30;;;12.20;99.90;;;;;;5011865;28;20181;-83
2022/11/17 03:27:39;;;;;;;5.47;1.23;;;12.20;99.90;;;;;;4995384;28;20213;-84
2022/11/17 03:30:07;;;;;;;5.43;1.42;;;12.10;99.90;;;;;;4994875;28;20220;-84
2022/11/17 03:32:37;;;;;;;12.85;1.17;;;12.10;99.90;;;;;;4996147;28;20201;-83
2022/11/17 03:35:09;;;;;;;7.35;1.23;;;12.30;99.90;;;;;;4995834;28;20169;-85
2022/11/17 03:37:40;;;;;;;3.70;1.00;;;12.10;99.90;;;;;;4996162;28;20248;-83
2022/11/17 03:40:12;;;;;;;4.05;0.82;;;12.20;99.90;;;;;;4994430;28;20638;-83
2022/11/17 03:42:42;;;;;;;13.05;1.50;;;12.20;99.90;;;;;;4994938;28;20250;-82
2022/11/17 03:45:15;;;;;;;6.63;1.23;;;12.10;99.90;;;;;;4995951;28;20161;-84
2022/11/17 03:47:42;;;;;;;3.35;1.17;;;12.10;99.90;;;;;;4994892;28;20188;-83
2022/11/17 03:50:36;;;;;;;10.27;1.17;;;12.10;99.90;;;;;;4994631;28;20705;-85
2022/11/17 03:53:03;;;;;;;11.45;0.90;;;12.10;99.90;;;;;;4994778;28;20196;-83
2022/11/17 03:56:00;;;;;;;11.93;1.45;;;12.10;99.90;;;;;;4996039;28;20170;-84
2022/11/17 03:58:30;;;;;;;6.28;1.33;;;12.10;99.90;;;;;;4994622;28;20189;-82
2022/11/17 04:00:58;;;;;;;3.65;0.98;;;12.10;99.90;;;;;;4996041;28;20300;-82
2022/11/17 04:03:32;;;;;;;5.38;1.67;;;12.00;99.90;;;;;;4994390;28;20219;-84
2022/11/17 04:05:58;;;;;;;5.32;0.98;;;12.10;99.90;;;;;;4995856;28;20299;-84
2022/11/17 04:08:28;;;;;;;6.13;1.90;;;12.00;99.90;;;;;;4995619;28;20256;-82
2022/11/17 04:16:22;;;;;;;5.32;1.13;;;12.10;99.90;;;;;;4995503;28;20593;-84
2022/11/17 04:18:48;;;;;;;6.05;1.30;;;12.20;99.90;;;;;;4995416;28;20197;-81
2022/11/17 04:21:13;;;;;;;7.97;1.58;;;12.20;99.90;;;;;;4994505;28;20173;-84
2022/11/17 04:23:39;;;;;;;7.32;0.98;;;12.20;99.90;;;;;;4994265;28;20179;-85
2022/11/17 04:28:49;;;;;;;4.30;1.40;;;12.30;99.90;;;;;;4994867;28;20614;-81
2022/11/17 04:31:26;;;;;;;4.90;1.23;;;12.20;99.90;;;;;;4994702;28;20169;-81
2022/11/17 04:33:54;;;;;;;4.40;1.45;;;12.10;99.90;;;;;;4996207;28;20177;-81
2022/11/17 04:36:34;;;;;;;10.93;1.48;;;12.10;99.90;;;;;;4994548;28;20256;-81
2022/11/17 04:39:00;;;;;;;2.20;1.10;;;12.10;99.90;;;;;;4994411;28;20193;-83
2022/11/17 04:44:16;;;;;;;8.60;1.17;;;12.00;99.90;;;;;;4994698;28;20184;-81
2022/11/17 04:46:45;;;;;;;4.93;0.98;;;12.00;99.90;;;;;;4994586;28;20213;-81
2022/11/17 04:49:12;;;;;;;4.30;1.00;;;12.00;99.90;;;;;;4993899;28;20684;-81
2022/11/17 04:51:37;;;;;;;6.68;1.30;;;11.90;99.90;;;;;;4993225;28;20625;-82
2022/11/17 04:54:05;;;;;;;4.30;0.80;;;11.90;99.90;;;;;;4993085;28;20176;-81
2022/11/17 04:56:31;;;;;;;4.50;0.65;;;11.90;99.90;;;;;;4994196;28;20165;-81
2022/11/17 04:58:56;;;;;;;2.60;0.90;;;11.90;99.90;;;;;;4992981;28;20610;-81
2022/11/17 05:01:24;;;;;;;2.25;0.63;;;11.80;99.90;;;;;;4993404;28;20260;-83
2022/11/17 05:04:02;;;;;;;4.28;1.20;;;11.70;99.90;;;;;;4996942;28;20173;-80
2022/11/17 05:06:31;;;;;;;2.20;0.38;;;11.60;99.90;;;;;;4992690;28;20220;-80
2022/11/17 05:08:58;;;;;;;8.35;1.02;;;11.60;99.90;;;;;;4992457;28;20217;-81
2022/11/17 05:14:10;;;;;;;3.55;0.68;;;11.50;99.90;;;;;;4993713;28;20192;-83
2022/11/17 05:19:23;;;;;;;1.55;0.50;;;11.50;99.90;;;;;;4993669;28;20307;-81
2022/11/17 05:21:49;;;;;;;4.70;0.85;;;11.40;99.90;;;;;;4992362;28;20173;-82
2022/11/17 05:24:16;;;;;;;3.53;0.68;;;11.30;99.90;;;;;;4992702;28;20176;-83
2022/11/17 05:26:43;;;;;;;12.00;0.80;;;11.30;99.90;;;;;;4992356;28;20307;-81
2022/11/17 05:29:11;;;;;;;3.55;0.70;;;11.30;99.90;;;;;;4993284;28;20181;-80
2022/11/17 05:31:36;;;;;;;4.53;0.80;;;11.30;99.90;;;;;;4993671;28;20219;-82
2022/11/17 05:34:04;;;;;;;2.47;0.90;;;11.30;99.90;;;;;;4993624;28;20634;-81
2022/11/17 05:36:30;;;;;;;6.43;1.00;;;11.30;99.90;;;;;;4992376;28;20200;-82
2022/11/17 05:38:56;;;;;;;2.28;0.80;;;11.30;99.90;;;;;;4991836;28;20189;-82
2022/11/17 05:41:24;;;;;;;5.82;0.93;;;11.30;99.90;;;;;;5013797;23;20650;-81
2022/11/17 05:43:56;;;;;;;3.25;1.10;;;11.30;99.90;;;;;;5008263;28;20177;-87
2022/11/17 05:46:22;;;;;;;2.50;0.70;;;11.40;99.90;;;;;;4993902;28;20233;-80
2022/11/17 05:48:49;;;;;;;0.65;0.45;;;11.30;99.90;;;;;;4993584;28;20192;-79
2022/11/17 05:51:16;;;;;;;0.95;0.40;;;11.30;99.90;;;;;;4993609;28;20176;-81
2022/11/17 05:53:41;;;;;;;3.50;0.75;;;11.30;99.90;;;;;;4993593;28;20174;-79
2022/11/17 05:56:27;;;;;;;0.90;0.43;;;11.30;99.90;;;;;;4993382;28;20169;-82
2022/11/17 05:59:18;;;;;;;0.95;0.70;;;11.30;99.90;;;;;;4993642;28;20216;-80
2022/11/17 06:01:59;;;;;;;2.28;0.50;;;11.20;99.90;;;;;;4990498;28;20185;-78
2022/11/17 06:04:24;;;;;;;6.38;0.57;;;11.10;99.90;;;;;;4992015;28;20173;-79
2022/11/17 06:06:50;;;;;;;3.80;0.75;;;11.30;99.90;;;;;;4991909;28;20220;-78
2022/11/17 06:09:16;;;;;;;11.25;0.45;;;11.20;99.90;;;;;;4993341;28;20196;-78
2022/11/17 06:11:42;;;;;;;1.63;0.32;;;11.30;99.90;;;;;;4993320;28;20165;-81
2022/11/17 06:14:07;;;;;;;1.30;0.50;;;11.30;99.90;;;;;;5008480;28;20177;-81
2022/11/17 06:16:42;;;;;;;2.20;0.65;;;11.20;99.90;;;;;;4993117;28;20173;-85
2022/11/17 06:19:14;;;;;;;5.05;0.80;;;11.20;99.90;;;;;;4993273;28;20215;-85
2022/11/17 06:21:40;;;;;;;1.35;0.57;;;11.20;99.90;;;;;;4993908;28;20307;-81
2022/11/17 06:24:10;;;;;;;3.30;0.82;;;11.30;99.90;;;;;;4994096;28;20204;-87
2022/11/17 06:26:38;;;;;;;3.53;0.82;;;11.20;99.90;;;;;;4993351;28;20216;-78
2022/11/17 06:29:04;;;;;;;1.67;0.60;;;11.10;99.90;;;;;;4993243;28;20653;-79
2022/11/17 06:31:31;;;;;;;1.33;0.60;;;11.10;99.90;;;;;;4993109;28;20526;-78
2022/11/17 06:34:00;;;;;;;4.10;1.17;;;11.10;99.90;;;;;;4992872;28;20165;-81
2022/11/17 06:36:25;;;;;;;1.20;0.50;;;11.20;99.90;;;;;;4993038;28;20181;-77
2022/11/17 06:38:51;;;;;;;2.65;0.52;;;11.20;99.90;;;;;;4992693;28;20650;-82
2022/11/17 06:41:16;;;;;;;2.15;0.88;;;11.20;99.90;;;;;;4991134;28;20550;-79
2022/11/17 06:43:42;;;;;;;8.85;0.68;;;11.30;99.90;;;;;;4992646;28;20244;-79
2022/11/17 06:46:07;;;;;;;1.90;0.43;;;11.30;99.90;;;;;;4992702;28;20259;-81
2022/11/17 06:48:34;;;;;;;1.42;0.70;;;11.20;99.90;;;;;;4992722;28;20196;-79
2022/11/17 06:51:04;;;;;;;5.50;0.73;;;11.20;99.90;;;;;;4992846;28;20170;-81
2022/11/17 06:53:31;;;;;;;3.63;1.08;;;11.30;99.90;;;;;;4992906;28;20219;-78
2022/11/17 06:56:09;;;;;;;1.08;0.55;;;11.30;99.90;;;;;;4992542;28;20173;-82
2022/11/17 06:58:38;;;;;;;4.10;0.40;;;11.30;99.90;;;;;;4992636;28;20207;-78
2022/11/17 07:01:12;;;;;;;6.97;0.70;;;11.20;99.90;;;;;;4992883;28;20181;-81
2022/11/17 07:03:39;;;;;;;2.17;0.70;;;11.20;99.90;;;;;;4992512;28;20176;-79
2022/11/17 07:06:06;;;;;;;4.47;0.57;;;11.30;99.90;;;;;;4991845;28;20288;-78
2022/11/17 07:08:32;;;;;;;1.85;0.68;;;11.30;99.90;;;;;;4992461;28;20243;-77
2022/11/17 07:11:02;;;;;;;0.80;0.47;;;11.30;99.90;;;;;;4992102;28;20174;-77
2022/11/17 07:13:27;;;;;;;2.78;0.55;;;11.30;99.90;;;;;;4992265;28;20508;-78
2022/11/17 07:15:53;;;;;;;2.42;0.50;;;11.30;99.90;;;;;;4997283;28;20168;-82
2022/11/17 07:18:26;;;;;;;0.63;0.60;;;11.30;99.90;;;;;;4996693;28;20200;-83
2022/11/17 07:20:52;;;;;;;4.68;0.57;;;11.30;99.90;;;;;;4996239;28;20166;-78
2022/11/17 07:23:17;;;;;;;5.47;0.52;;;11.30;99.90;;;;;;4996201;28;20182;-78
2022/11/17 07:25:43;;;;;;;1.75;0.47;;;11.30;99.90;;;;;;4996247;28;20208;-78
2022/11/17 07:28:09;;;;;;;3.03;0.57;;;11.30;99.90;;;;;;4995845;28;20187;-78
2022/11/17 07:30:35;;;;;;;0.55;0.55;;;11.30;99.90;;;;;;4996608;28;20173;-77
2022/11/17 07:33:00;;;;;;;1.92;0.55;;;11.30;99.90;;;;;;4997100;28;20165;-83
2022/11/17 07:35:27;;;;;;;2.63;0.57;;;11.30;99.90;;;;;;4998607;28;20181;-83
2022/11/17 07:38:00;;;;;;;2.53;0.80;;;11.30;99.90;;;;;;4996913;28;20220;-84
2022/11/17 07:40:27;;;;;;;2.03;0.55;;;11.30;99.90;;;;;;5008538;28;20208;-83
2022/11/17 07:42:52;;;;;;;1.67;0.60;;;11.20;99.90;;;;;;5032392;28;20179;-82
2022/11/17 07:45:20;;;;;;;1.92;0.88;;;11.20;99.90;;;;;;5015686;28;20164;-87
2022/11/17 07:47:55;;;;;;;2.55;0.50;;;11.20;99.90;;;;;;5016716;28;20231;-81
2022/11/17 07:50:22;;;;;;;1.45;0.68;;;11.30;99.90;;;;;;5005540;28;20189;-93
2022/11/17 07:52:49;;;;;;;1.33;0.70;;;11.30;99.90;;;;;;4998456;28;20193;-86
2022/11/17 07:55:15;;;;;;;0.90;0.40;;;11.30;99.90;;;;;;4998729;28;20161;-81
2022/11/17 07:57:40;;;;;;;2.20;0.60;;;11.30;99.90;;;;;;5000785;28;20184;-92
2022/11/17 08:00:07;;;;;;;0.55;0.40;;;11.30;99.90;;;;;;4999754;28;20197;-90
2022/11/17 08:02:32;;;;;;;2.35;0.70;;;11.30;99.90;;;;;;5003157;28;20170;-87
2022/11/17 08:04:58;;;;;;;3.22;0.40;;;11.40;99.90;;;;;;4999670;28;20171;-94
2022/11/17 08:07:26;;;;;;;3.75;0.60;;;11.30;99.90;;;;;;5007367;28;20291;-77
2022/11/17 08:10:09;;;;;;;0.60;0.43;;;11.30;99.90;;;;;;4999053;28;20280;-78
2022/11/17 08:12:37;;;;;;;0.82;0.50;;;11.40;99.90;;;;;;5001575;28;20371;-79
2022/11/17 08:15:12;;;;;;;3.30;0.80;;;11.40;99.90;;;;;;4999610;28;20247;-77
2022/11/17 08:17:37;;;;;;;3.70;0.47;;;11.40;99.90;;;;;;4996291;28;20212;-77
2022/11/17 08:20:11;;;;;;;1.73;0.50;;;11.40;99.90;;;;;;4998837;28;20212;-77
2022/11/17 08:22:38;;;;;;;3.42;0.60;;;11.40;99.90;;;;;;5000795;28;20630;-81
2022/11/17 08:25:12;;;;;;;0.75;0.40;;;11.50;99.90;;;;;;5001241;28;20231;-89
2022/11/17 08:27:40;;;;;;;1.55;0.80;;;11.50;99.90;;;;;;5006944;28;20208;-80
2022/11/17 08:30:34;;;;;;;2.47;0.63;;;11.50;99.90;;;;;;5007738;28;20181;-77
2022/11/17 08:33:02;;;;;;;2.47;0.47;;;11.50;99.90;;;;;;5010158;28;20241;-91
2022/11/17 08:35:28;;;;;;;2.65;0.57;;;11.60;99.90;;;;;;5008750;28;20172;-92
2022/11/17 08:37:54;;;;;;;10.98;1.52;;;11.50;99.90;;;;;;5007529;28;20169;-80
2022/11/17 08:40:20;;;;;;;2.33;0.98;;;11.60;99.90;;;;;;5009725;28;20201;-81
2022/11/17 08:42:51;;;;;;;0.82;0.52;;;11.60;99.90;;;;;;5008884;28;20170;-94
2022/11/17 08:45:16;;;;;;;3.53;0.80;;;11.60;99.90;;;;;;4994510;28;20561;-87
2022/11/17 08:47:42;;;;;;;3.10;0.93;;;11.60;99.90;;;;;;5002492;28;20204;-79
2022/11/17 08:50:23;;;;;;;2.67;0.82;;;11.60;99.90;;;;;;5011644;28;20197;-78
2022/11/17 08:52:51;;;;;;;5.03;0.90;;;11.70;99.90;;;;;;5012624;28;20201;-79
2022/11/17 08:55:16;;;;;;;1.95;0.88;;;11.80;99.90;;;;;;5010354;28;20180;-85
2022/11/17 08:57:42;;;;;;;1.63;0.63;;;11.90;99.90;;;;;;5013231;28;20165;-86
2022/11/17 09:00:26;;;;;;;2.17;0.50;;;11.90;99.90;;;;;;5011837;28;20220;-86
2022/11/17 09:02:52;;;;;;;0.85;0.80;;;11.90;99.90;;;;;;5012556;28;20196;-84
2022/11/17 09:05:17;;;;;;;2.17;0.50;;;11.90;99.90;;;;;;5012906;28;20185;-86
2022/11/17 09:07:43;;;;;;;4.57;0.85;;;11.90;99.90;;;;;;5004830;28;20204;-91
2022/11/17 09:10:09;;;;;;;4.13;0.93;;;11.90;99.90;;;;;;5010764;28;20181;-96
2022/11/17 09:12:36;;;;;;;7.60;0.88;;;12.00;99.90;;;;;;5015604;28;20185;-95
2022/11/17 09:15:02;;;;;;;1.75;0.60;;;11.90;99.90;;;;;;4989422;28;20181;-87
2022/11/17 09:17:30;;;;;;;0.52;0.40;;;11.90;99.90;;;;;;4994407;28;20165;-90
2022/11/17 09:19:55;;;;;;;0.88;0.40;;;11.90;99.90;;;;;;5011130;28;20196;-91
2022/11/17 09:22:21;;;;;;;7.03;1.48;;;12.00;99.90;;;;;;5011124;28;20256;-91
2022/11/17 09:24:46;;;;;;;3.35;0.98;;;12.00;99.90;;;;;;4997025;28;20169;-91
2022/11/17 09:27:12;;;;;;;7.93;0.57;;;12.00;99.90;;;;;;4996511;28;20240;-95
2022/11/17 09:29:38;;;;;;;13.57;0.65;;;12.10;99.90;;;;;;4997670;28;20181;-89
2022/11/17 09:32:04;;;;;;;3.95;0.80;;;12.30;99.90;;;;;;4997624;28;20184;-92
2022/11/17 09:34:30;;;;;;;10.15;0.73;;;12.40;99.90;;;;;;4997509;28;20161;-95
2022/11/17 09:36:55;;;;;;;3.17;0.73;;;12.50;99.90;;;;;;5008031;28;20181;-94
2022/11/17 09:39:21;;;;;;;9.70;1.20;;;12.70;99.90;;;;;;5003231;28;20224;-91
2022/11/17 09:41:52;;;;;;;3.05;0.95;;;12.90;99.90;;;;;;4996945;28;20195;-95
2022/11/17 09:44:33;;;;;;;3.63;0.70;;;12.90;99.90;;;;;;4994727;28;20192;-86
2022/11/17 09:47:31;;;;;;;1.20;0.77;;;12.90;99.90;;;;;;4996291;28;20200;-93
2022/11/17 09:50:04;;;;;;;1.95;0.80;;;13.00;99.90;;;;;;5003713;28;20189;-96
2022/11/17 09:52:41;;;;;;;3.88;1.00;;;13.00;99.90;;;;;;5002336;28;20161;-95
2022/11/17 09:55:07;;;;;;;4.43;0.90;;;13.00;99.90;;;;;;4999795;28;20235;-95
2022/11/17 09:57:44;;;;;;;8.80;0.77;;;12.90;99.90;;;;;;4996620;28;20173;-92
2022/11/17 10:00:14;;;;;;;2.20;1.17;;;12.80;99.90;;;;;;4995032;28;20235;-94
2022/11/17 10:02:41;;;;;;;2.72;1.08;;;12.80;99.90;;;;;;4995328;28;20224;-96
2022/11/17 10:05:19;;;;;;;2.40;0.60;;;12.90;99.90;;;;;;4995191;28;20181;-96
2022/11/17 10:07:49;;;;;;;7.63;0.82;;;12.90;99.90;;;;;;4993264;28;20215;-80
2022/11/17 10:10:42;;;;;;;2.00;0.63;;;13.00;99.90;;;;;;4995649;28;20191;-95
2022/11/17 10:13:16;;;;;;;3.13;0.80;;;12.90;99.90;;;;;;4990753;28;20661;-93
2022/11/17 10:15:48;;;;;;;4.40;0.75;;;12.70;99.90;;;;;;5015660;28;20192;-94
2022/11/17 10:18:22;;;;;;;2.00;0.63;;;12.60;99.90;;;;;;5006188;28;20228;-77
2022/11/17 10:20:48;;;;;;;5.85;0.77;;;12.60;99.90;;;;;;5002559;28;20219;-82
2022/11/17 10:23:21;;;;;;;1.63;0.70;;;12.60;99.90;;;;;;5006177;28;20173;-79
2022/11/17 10:25:57;;;;;;;1.73;0.80;;;12.60;99.90;;;;;;5031985;28;20204;-87
2022/11/17 10:28:26;;;;;;;1.48;0.55;;;12.50;99.90;;;;;;5014590;28;20302;-92
2022/11/17 10:30:54;;;;;;;2.72;0.65;;;12.30;99.90;;;;;;5013240;28;20168;-91
2022/11/17 10:33:36;;;;;;;1.80;0.70;;;12.30;99.90;;;;;;5004718;28;20182;-89
2022/11/17 10:36:05;;;;;;;2.72;0.68;;;12.10;99.90;;;;;;4994374;28;20189;-91
2022/11/17 10:38:32;;;;;;;5.05;0.68;;;12.10;99.90;;;;;;4995836;28;20189;-89
2022/11/17 10:41:01;;;;;;;2.10;0.88;;;11.90;99.90;;;;;;4994756;28;20196;-91
2022/11/17 10:43:35;;;;;;;2.72;0.60;;;11.90;99.90;;;;;;4994515;28;20216;-93
2022/11/17 10:46:15;;;;;;;2.38;0.77;;;11.90;99.90;;;;;;4994406;28;20208;-78
2022/11/17 10:48:56;;;;;;;3.92;0.70;;;12.00;99.90;;;;;;5010556;28;20193;-94
2022/11/17 10:51:26;;;;;;;2.40;0.60;;;12.10;99.90;;;;;;4997969;28;20173;-84
2022/11/17 10:54:13;;;;;;;6.57;1.00;;;12.10;99.90;;;;;;4997797;28;20169;-89
2022/11/17 10:56:42;;;;;;;6.18;0.68;;;12.30;99.90;;;;;;4994516;28;20216;-89
2022/11/17 10:59:08;;;;;;;1.27;0.63;;;12.50;99.90;;;;;;4997831;28;20185;-90
2022/11/17 11:01:39;;;;;;;4.75;0.80;;;12.60;99.90;;;;;;4997691;28;20169;-92
2022/11/17 11:04:24;;;;;;;2.15;1.10;;;12.70;99.90;;;;;;4998739;28;20255;-90
2022/11/17 11:07:12;;;;;;;7.38;0.82;;;12.80;99.90;;;;;;5000213;28;20201;-90
2022/11/17 11:09:49;;;;;;;5.05;0.75;;;12.90;99.90;;;;;;4998154;28;20271;-92
2022/11/17 11:12:23;;;;;;;1.98;0.60;;;12.80;99.90;;;;;;4998421;28;20165;-93
2022/11/17 11:14:53;;;;;;;0.55;0.50;;;13.00;99.90;;;;;;4999634;28;20169;-87
2022/11/17 11:17:19;;;;;;;4.78;0.90;;;13.20;99.90;;;;;;5012472;28;20534;-88
2022/11/17 11:19:51;;;;;;;1.63;0.45;;;13.30;99.90;;;;;;4997608;28;20184;-94
2022/11/17 11:22:30;;;;;;;3.67;0.93;;;13.20;99.90;;;;;;5000915;28;20688;-85
2022/11/17 11:25:18;;;;;;;1.85;0.60;;;13.30;99.90;;;;;;5002812;28;20173;-85
2022/11/17 11:28:28;;;;;;;2.25;0.52;;;13.30;99.90;;;;;;5004153;28;20806;-87
2022/11/17 11:31:18;;;;;;;1.67;1.00;;;13.30;99.90;;;;;;5000590;28;20244;-89
2022/11/17 11:34:01;;;;;;;1.25;0.65;;;13.20;99.90;;;;;;4999894;28;20173;-89
2022/11/17 11:36:38;;;;;;;2.15;1.00;;;13.20;99.90;;;;;;5003116;28;20173;-91
2022/11/17 11:39:10;;;;;;;0.80;0.80;;;13.20;99.90;;;;;;5003168;28;20228;-88
2022/11/17 11:41:49;;;;;;;1.75;0.70;;;13.20;99.90;;;;;;5003288;28;20239;-90
2022/11/17 11:44:18;;;;;;;3.40;0.60;;;13.20;99.90;;;;;;5002378;28;20257;-94
2022/11/17 11:47:21;;;;;;;2.55;1.40;;;13.40;99.90;;;;;;4997869;28;20208;-83
2022/11/17 11:50:16;;;;;;;3.70;0.85;;;13.40;99.90;;;;;;5006194;28;20192;-86
2022/11/17 11:52:48;;;;;;;3.50;0.77;;;13.40;99.90;;;;;;5010435;28;20205;-90
2022/11/17 11:55:35;;;;;;;2.67;0.85;;;13.50;99.90;;;;;;5012139;28;20165;-85
2022/11/17 11:58:22;;;;;;;3.70;0.57;;;13.50;99.90;;;;;;4988043;28;20198;-90
2022/11/17 12:01:06;;;;;;;2.60;0.60;;;13.60;99.90;;;;;;4987370;28;20246;-91
2022/11/17 12:03:42;;;;;;;4.97;1.35;;;13.50;99.90;;;;;;4988346;28;20189;-92
2022/11/17 12:06:39;;;;;;;1.52;0.55;;;13.50;99.90;;;;;;4988579;28;20275;-86
2022/11/17 12:09:35;;;;;;;5.45;1.10;;;13.40;99.90;;;;;;5002797;28;20206;-88
2022/11/17 12:12:07;;;;;;;5.00;1.25;;;13.60;99.90;;;;;;4989283;28;20233;-92
2022/11/17 12:14:36;;;;;;;2.35;0.70;;;13.70;99.90;;;;;;4986113;28;20192;-82
2022/11/17 12:17:05;;;;;;;1.27;0.43;;;13.80;99.90;;;;;;4971737;28;20374;-87
2022/11/17 12:19:54;;;;;;;0.75;0.50;;;13.90;99.90;;;;;;5004453;28;20220;-91
2022/11/17 12:22:22;;;;;;;0.75;0.50;;;13.80;99.90;;;;;;5006676;28;20157;-94
2022/11/17 12:24:53;;;;;;;0.60;0.57;;;13.70;99.90;;;;;;5005747;28;20196;-80
2022/11/17 12:27:34;;;;;;;5.22;0.50;;;13.60;99.90;;;;;;5020947;28;20196;-91
2022/11/17 12:30:03;;;;;;;2.22;0.60;;;13.60;99.90;;;;;;5024853;28;20230;-87
2022/11/17 12:32:52;;;;;;;1.27;0.60;;;13.40;99.90;;;;;;5019903;28;20235;-92
2022/11/17 12:35:24;;;;;;;1.42;0.68;;;13.50;99.90;;;;;;5018315;28;20552;-93
2022/11/17 12:38:18;;;;;;;1.60;0.52;;;13.50;99.90;;;;;;5007057;28;20240;-82
2022/11/17 12:40:52;;;;;;;5.68;0.68;;;13.30;99.90;;;;;;5002039;28;20184;-82
2022/11/17 12:43:23;;;;;;;0.73;0.70;;;13.30;99.90;;;;;;5002332;28;20199;-95
2022/11/17 12:45:51;;;;;;;2.80;0.98;;;13.30;99.90;;;;;;4999463;28;20192;-92
2022/11/17 12:48:38;;;;;;;0.93;0.60;;;13.30;99.90;;;;;;4998877;28;20227;-80
2022/11/17 12:51:36;;;;;;;1.45;0.80;;;13.30;99.90;;;;;;5002442;28;20256;-83
2022/11/17 12:54:25;;;;;;;5.05;0.80;;;13.30;99.90;;;;;;5002538;28;20165;-91
2022/11/17 12:56:57;;;;;;;3.65;1.05;;;13.20;99.90;;;;;;5001510;28;20180;-94
2022/11/17 12:59:48;;;;;;;0.55;0.45;;;13.20;99.90;;;;;;5001738;28;20197;-85
2022/11/17 13:02:31;;;;;;;0.55;0.47;;;13.20;99.90;;;;;;4999865;28;20641;-82
2022/11/17 13:05:03;;;;;;;3.28;0.80;;;13.50;99.90;;;;;;4997323;28;20164;-87
2022/11/17 13:07:29;;;;;;;5.75;0.60;;;13.70;99.90;;;;;;4997121;28;20208;-82
2022/11/17 13:09:57;;;;;;;1.00;0.55;;;13.80;99.90;;;;;;5018843;28;20235;-88
2022/11/17 13:12:27;;;;;;;0.98;0.60;;;13.80;99.90;;;;;;5017859;28;20203;-93
2022/11/17 13:15:01;;;;;;;1.52;0.70;;;13.70;99.90;;;;;;5019786;28;20169;-86
2022/11/17 13:17:34;;;;;;;6.47;0.70;;;13.70;99.90;;;;;;5013650;28;20191;-79
2022/11/17 13:20:18;;;;;;;3.47;0.45;;;13.60;99.90;;;;;;5016493;28;20204;-86
2022/11/17 13:23:01;;;;;;;2.38;0.60;;;13.60;99.90;;;;;;5034400;28;20628;-90
2022/11/17 13:25:28;;;;;;;1.88;0.73;;;13.50;99.90;;;;;;5017143;28;20181;-82
2022/11/17 13:27:56;;;;;;;4.22;0.77;;;13.30;99.90;;;;;;5013562;28;20212;-78
2022/11/17 13:30:27;;;;;;;4.93;0.95;;;13.40;99.90;;;;;;5016576;28;20200;-90
2022/11/17 13:32:54;;;;;;;1.40;0.52;;;13.60;99.90;;;;;;5000991;28;20243;-88
2022/11/17 13:35:27;;;;;;;3.67;0.73;;;13.70;99.90;;;;;;4998133;28;20166;-80